createdAt,value
2023-03-13T00:01:13.454Z,0.93
2023-03-13T00:03:41.668Z,0.95
2023-03-13T00:06:09.988Z,0.96
2023-03-13T00:08:38.127Z,1.08
2023-03-13T00:11:07.781Z,1.16
2023-03-13T00:13:36.608Z,1.13
2023-03-13T00:16:08.447Z,1.23
2023-03-13T00:18:37.053Z,1.24
2023-03-13T00:21:07.432Z,1.20
2023-03-13T00:23:38.432Z,1.20
2023-03-13T00:26:08.284Z,1.10
2023-03-13T00:28:37.466Z,1.04
2023-03-13T00:31:09.221Z,1.11
2023-03-13T00:33:38.850Z,1.12
2023-03-13T00:36:09.091Z,1.15
2023-03-13T00:38:37.960Z,1.20
2023-03-13T00:41:07.982Z,1.12
2023-03-13T00:43:36.880Z,1.17
2023-03-13T00:46:05.341Z,1.14
2023-03-13T00:48:35.277Z,1.11
2023-03-13T00:51:04.137Z,1.08
2023-03-13T00:53:32.648Z,1.07
2023-03-13T00:56:02.380Z,0.98
2023-03-13T00:58:32.784Z,1.01
2023-03-13T01:01:08.922Z,1.00
2023-03-13T01:03:39.274Z,0.95
2023-03-13T01:06:08.973Z,0.95
2023-03-13T01:08:37.469Z,0.90
2023-03-13T01:11:08.612Z,0.96
2023-03-13T01:13:37.419Z,0.94
2023-03-13T01:16:07.151Z,0.92
2023-03-13T01:18:36.070Z,0.89
2023-03-13T01:21:06.771Z,0.85
2023-03-13T01:23:35.267Z,0.82
2023-03-13T01:26:06.371Z,0.65
2023-03-13T01:28:35.338Z,0.59
2023-03-13T01:31:12.470Z,0.57
2023-03-13T01:33:40.643Z,0.47
2023-03-13T01:36:10.729Z,0.47
2023-03-13T01:38:39.670Z,0.39
2023-03-13T01:41:09.054Z,0.33
2023-03-13T01:43:38.246Z,0.34
2023-03-13T01:46:16.559Z,0.38
2023-03-13T01:48:56.668Z,0.42
2023-03-13T01:51:30.052Z,0.41
2023-03-13T01:54:06.648Z,0.36
2023-03-13T01:56:41.378Z,0.36
2023-03-13T01:59:12.389Z,0.30
2023-03-13T02:01:42.217Z,0.32
2023-03-13T02:04:10.441Z,0.28
2023-03-13T02:06:44.197Z,0.18
2023-03-13T02:09:16.210Z,0.20
2023-03-13T02:11:49.958Z,0.16
2023-03-13T02:14:22.299Z,0.18
2023-03-13T02:16:52.180Z,0.16
2023-03-13T02:19:31.592Z,0.01
2023-03-13T02:22:13.123Z,0.10
2023-03-13T02:24:51.809Z,0.02
2023-03-13T02:27:21.381Z,0.01
2023-03-13T02:29:51.048Z,0.04
2023-03-13T02:32:19.308Z,-0.01
2023-03-13T02:34:51.820Z,0.10
2023-03-13T02:37:22.013Z,0.12
2023-03-13T02:39:52.628Z,0.02
2023-03-13T02:42:24.480Z,-0.06
2023-03-13T02:44:53.068Z,-0.13
2023-03-13T02:47:22.067Z,-0.12
2023-03-13T02:49:51.352Z,-0.06
2023-03-13T02:52:25.801Z,-0.01
2023-03-13T02:54:58.449Z,-0.16
2023-03-13T02:57:27.925Z,-0.20
2023-03-13T02:59:56.087Z,-0.21
2023-03-13T03:02:24.500Z,-0.25
2023-03-13T03:04:54.359Z,-0.42
2023-03-13T03:07:22.457Z,-0.35
2023-03-13T03:09:50.711Z,-0.33
2023-03-13T03:12:20.947Z,-0.35
2023-03-13T03:14:50.648Z,-0.35
2023-03-13T03:17:19.457Z,-0.32
2023-03-13T03:19:47.496Z,-0.36
2023-03-13T03:22:15.590Z,-0.30
2023-03-13T03:24:43.665Z,-0.25
2023-03-13T03:27:11.817Z,-0.28
2023-03-13T03:29:46.261Z,-0.26
2023-03-13T03:32:15.829Z,-0.33
2023-03-13T03:34:44.345Z,-0.30
2023-03-13T03:37:12.481Z,-0.40
2023-03-13T03:39:40.935Z,-0.48
2023-03-13T03:42:09.746Z,-0.47
2023-03-13T03:44:38.502Z,-0.53
2023-03-13T03:47:07.737Z,-0.56
2023-03-13T03:49:41.735Z,-0.52
2023-03-13T03:52:12.422Z,-0.52
2023-03-13T03:54:43.227Z,-0.50
2023-03-13T03:57:11.511Z,-0.43
2023-03-13T03:59:41.237Z,-0.38
2023-03-13T04:02:10.571Z,-0.40
2023-03-13T04:04:38.791Z,-0.34
2023-03-13T04:07:20.665Z,-0.27
2023-03-13T04:09:49.821Z,-0.27
2023-03-13T04:12:26.757Z,-0.30
2023-03-13T04:14:56.620Z,-0.31
2023-03-13T04:17:24.865Z,-0.38
2023-03-13T04:19:53.123Z,-0.47
2023-03-13T04:22:22.771Z,-0.43
2023-03-13T04:24:55.795Z,-0.46
2023-03-13T04:27:24.808Z,-0.50
2023-03-13T04:29:53.661Z,-0.49
2023-03-13T04:32:40.415Z,-0.49
2023-03-13T04:35:32.308Z,-0.49
2023-03-13T04:38:18.728Z,-0.41
2023-03-13T04:40:48.020Z,-0.40
2023-03-13T04:43:34.572Z,-0.41
2023-03-13T04:46:15.639Z,-0.35
2023-03-13T04:49:13.734Z,-0.34
2023-03-13T04:52:00.318Z,-0.36
2023-03-13T04:54:53.079Z,-0.37
2023-03-13T04:57:43.089Z,-0.38
2023-03-13T05:00:29.453Z,-0.37
2023-03-13T05:03:26.410Z,-0.32
2023-03-13T05:06:00.326Z,-0.29
2023-03-13T05:08:54.691Z,-0.36
2023-03-13T05:11:58.200Z,-0.33
2023-03-13T05:14:46.671Z,-0.28
2023-03-13T05:17:33.091Z,-0.30
2023-03-13T05:20:19.768Z,-0.24
2023-03-13T05:23:17.149Z,-0.25
2023-03-13T05:26:05.613Z,-0.35
2023-03-13T05:29:01.093Z,-0.27
2023-03-13T05:31:35.814Z,-0.24
2023-03-13T05:34:19.287Z,-0.22
2023-03-13T05:37:09.436Z,-0.16
2023-03-13T05:39:52.807Z,-0.10
2023-03-13T05:42:47.443Z,-0.01
2023-03-13T05:45:29.303Z,0.07
2023-03-13T05:48:03.580Z,0.15
2023-03-13T05:50:56.233Z,0.23
2023-03-13T05:53:44.613Z,0.25
2023-03-13T05:56:33.050Z,0.21
2023-03-13T05:59:27.782Z,0.19
2023-03-13T06:02:27.175Z,0.42
2023-03-13T06:04:56.962Z,0.55
2023-03-13T06:07:25.414Z,0.67
2023-03-13T06:09:54.370Z,0.85
2023-03-13T06:12:22.460Z,1.06
2023-03-13T06:14:50.777Z,1.32
2023-03-13T06:17:43.565Z,1.61
2023-03-13T06:20:13.017Z,1.81
2023-03-13T06:22:42.001Z,2.06
2023-03-13T06:25:10.836Z,2.13
2023-03-13T06:27:38.897Z,2.21
2023-03-13T06:30:07.507Z,2.45
2023-03-13T06:32:35.684Z,2.47
2023-03-13T06:35:06.026Z,2.53
2023-03-13T06:37:34.846Z,2.62
2023-03-13T06:40:04.545Z,2.74
2023-03-13T06:42:32.694Z,3.11
2023-03-13T06:45:00.764Z,3.16
2023-03-13T06:47:28.934Z,3.15
2023-03-13T06:49:57.043Z,3.29
2023-03-13T06:52:37.578Z,3.33
2023-03-13T06:55:10.618Z,3.41
2023-03-13T06:57:38.699Z,3.71
2023-03-13T07:00:08.807Z,4.07
2023-03-13T07:02:36.884Z,4.17
2023-03-13T07:05:06.046Z,4.29
2023-03-13T07:07:35.620Z,4.27
2023-03-13T07:10:05.008Z,4.39
2023-03-13T07:12:33.119Z,4.48
2023-03-13T07:15:01.174Z,4.58
2023-03-13T07:17:29.334Z,4.72
2023-03-13T07:19:57.656Z,4.66
2023-03-13T07:22:25.857Z,4.70
2023-03-13T07:24:55.422Z,4.51
2023-03-13T07:27:23.599Z,4.66
2023-03-13T07:29:51.789Z,4.58
2023-03-13T07:32:19.982Z,4.72
2023-03-13T07:34:48.144Z,4.87
2023-03-13T07:37:17.379Z,5.37
2023-03-13T07:39:45.479Z,5.38
2023-03-13T07:42:14.991Z,5.97
2023-03-13T07:44:43.056Z,6.11
2023-03-13T07:47:11.569Z,5.81
2023-03-13T07:49:42.843Z,6.02
2023-03-13T07:52:11.626Z,5.89
2023-03-13T07:54:39.768Z,5.84
2023-03-13T07:57:08.081Z,6.04
2023-03-13T07:59:37.591Z,6.31
2023-03-13T08:02:06.259Z,6.49
2023-03-13T08:04:34.372Z,6.62
2023-03-13T08:07:02.498Z,6.73
2023-03-13T08:09:33.758Z,6.71
2023-03-13T08:12:01.877Z,6.38
2023-03-13T08:14:29.916Z,6.39
2023-03-13T08:16:59.515Z,6.34
2023-03-13T08:19:27.791Z,6.23
2023-03-13T08:21:55.984Z,6.38
2023-03-13T08:24:24.303Z,6.28
2023-03-13T08:26:52.433Z,6.13
2023-03-13T08:29:20.506Z,6.17
2023-03-13T08:31:50.024Z,6.00
2023-03-13T08:34:20.274Z,5.95
2023-03-13T08:36:48.910Z,6.07
2023-03-13T08:39:18.525Z,6.07
2023-03-13T08:41:47.122Z,6.01
2023-03-13T08:44:17.377Z,5.94
2023-03-13T08:46:45.798Z,5.89
2023-03-13T08:49:14.496Z,6.12
2023-03-13T08:51:44.086Z,6.22
2023-03-13T08:54:12.321Z,6.42
2023-03-13T08:56:41.072Z,6.53
2023-03-13T08:59:09.178Z,6.55
2023-03-13T09:01:38.246Z,6.77
2023-03-13T09:04:07.262Z,6.88
2023-03-13T09:06:36.548Z,7.21
2023-03-13T09:09:07.118Z,7.96
2023-03-13T09:11:37.065Z,8.98
2023-03-13T09:14:05.269Z,10.91
2023-03-13T09:16:35.062Z,12.64
2023-03-13T09:19:03.543Z,14.36
2023-03-13T09:21:33.951Z,14.27
2023-03-13T09:24:02.690Z,15.61
2023-03-13T09:26:32.668Z,15.87
2023-03-13T09:29:00.904Z,15.77
2023-03-13T09:31:31.126Z,14.80
2023-03-13T09:33:59.365Z,15.22
2023-03-13T09:36:28.813Z,15.16
2023-03-13T09:38:59.340Z,15.26
2023-03-13T09:41:35.253Z,15.93
2023-03-13T09:44:08.140Z,17.17
2023-03-13T09:46:41.231Z,17.76
2023-03-13T09:49:18.310Z,17.64
2023-03-13T09:51:52.263Z,17.92
2023-03-13T09:54:27.111Z,18.79
2023-03-13T09:57:00.037Z,18.93
2023-03-13T09:59:33.777Z,19.77
2023-03-13T10:02:05.577Z,21.26
2023-03-13T10:04:42.076Z,20.67
2023-03-13T10:07:12.561Z,21.87
2023-03-13T10:09:41.886Z,24.04
2023-03-13T10:12:18.082Z,22.08
2023-03-13T10:14:55.132Z,23.73
2023-03-13T10:17:32.387Z,21.85
2023-03-13T10:20:09.232Z,23.31
2023-03-13T10:22:38.456Z,24.35
2023-03-13T10:25:10.603Z,23.25
2023-03-13T10:27:53.688Z,23.17
2023-03-13T10:30:25.978Z,23.32
2023-03-13T10:33:01.010Z,22.11
2023-03-13T10:35:34.809Z,20.38
2023-03-13T10:38:06.916Z,21.68
2023-03-13T10:40:35.387Z,22.39
2023-03-13T10:43:07.425Z,24.28
2023-03-13T10:45:37.981Z,25.80
2023-03-13T10:48:14.036Z,25.97
2023-03-13T10:50:45.024Z,24.93
2023-03-13T10:53:24.710Z,23.29
2023-03-13T10:55:55.412Z,22.64
2023-03-13T10:58:34.569Z,21.70
2023-03-13T11:01:17.203Z,21.89
2023-03-13T11:03:45.861Z,21.69
2023-03-13T11:06:42.466Z,21.29
2023-03-13T11:09:14.901Z,20.17
2023-03-13T11:11:51.058Z,18.80
2023-03-13T11:14:22.467Z,18.20
2023-03-13T11:16:52.516Z,17.90
2023-03-13T11:19:40.661Z,17.83
2023-03-13T11:22:23.839Z,16.96
2023-03-13T11:25:03.650Z,16.36
2023-03-13T11:27:40.080Z,15.93
2023-03-13T11:30:22.759Z,16.62
2023-03-13T11:32:56.584Z,19.31
2023-03-13T11:35:38.377Z,21.59
2023-03-13T11:38:10.333Z,23.77
2023-03-13T11:40:46.527Z,21.25
2023-03-13T11:43:26.865Z,20.63
2023-03-13T11:46:12.631Z,19.32
2023-03-13T11:48:54.904Z,18.27
2023-03-13T11:51:30.537Z,17.30
2023-03-13T11:54:26.003Z,17.19
2023-03-13T11:56:57.949Z,16.53
2023-03-13T11:59:37.689Z,16.73
2023-03-13T12:02:20.235Z,17.46
2023-03-13T12:04:53.791Z,19.21
2023-03-13T12:07:29.325Z,20.44
2023-03-13T12:10:01.382Z,19.73
2023-03-13T12:12:41.871Z,19.67
2023-03-13T12:15:21.788Z,19.78
2023-03-13T12:17:56.360Z,19.71
2023-03-13T12:20:28.967Z,19.28
2023-03-13T12:23:08.519Z,19.54
2023-03-13T12:25:44.612Z,20.49
2023-03-13T12:28:34.398Z,20.63
2023-03-13T12:31:11.771Z,20.70
2023-03-13T12:33:45.609Z,21.52
2023-03-13T12:36:20.013Z,21.33
2023-03-13T12:38:56.793Z,21.70
2023-03-13T12:41:29.409Z,22.96
2023-03-13T12:44:08.353Z,22.90
2023-03-13T12:46:42.380Z,21.14
2023-03-13T12:49:48.807Z,19.68
2023-03-13T12:52:43.623Z,18.52
2023-03-13T12:55:30.923Z,18.29
2023-03-13T12:58:20.582Z,18.30
2023-03-13T13:00:51.421Z,18.65
2023-03-13T13:03:31.260Z,19.86
2023-03-13T13:06:07.210Z,21.57
2023-03-13T13:08:38.939Z,23.34
2023-03-13T13:11:53.598Z,23.64
2023-03-13T13:15:06.816Z,21.98
2023-03-13T13:17:48.829Z,21.89
2023-03-13T13:20:46.203Z,23.42
2023-03-13T13:23:34.997Z,24.26
2023-03-13T13:26:49.613Z,24.03
2023-03-13T13:29:57.391Z,23.58
2023-03-13T13:32:46.260Z,23.38
2023-03-13T13:35:27.423Z,21.99
2023-03-13T13:38:39.848Z,20.62
2023-03-13T13:41:38.817Z,19.41
2023-03-13T13:44:23.356Z,19.19
2023-03-13T13:46:52.101Z,19.01
2023-03-13T13:49:21.219Z,18.90
2023-03-13T13:52:41.217Z,18.84
2023-03-13T13:55:34.680Z,17.76
2023-03-13T13:58:05.699Z,17.77
2023-03-13T14:00:41.911Z,17.38
2023-03-13T14:03:20.455Z,16.99
2023-03-13T14:05:50.158Z,16.72
2023-03-13T14:08:24.126Z,16.56
2023-03-13T14:11:05.343Z,16.28
2023-03-13T14:13:33.444Z,16.15
2023-03-13T14:16:24.207Z,15.99
2023-03-13T14:18:53.268Z,16.26
2023-03-13T14:21:24.239Z,16.21
2023-03-13T14:23:53.002Z,16.14
2023-03-13T14:26:24.676Z,16.09
2023-03-13T14:28:54.747Z,16.06
2023-03-13T14:31:25.197Z,15.93
2023-03-13T14:33:54.327Z,15.89
2023-03-13T14:36:22.985Z,16.01
2023-03-13T14:38:56.731Z,16.10
2023-03-13T14:41:31.300Z,15.80
2023-03-13T14:44:08.180Z,15.52
2023-03-13T14:46:38.287Z,15.73
2023-03-13T14:49:16.206Z,15.78
2023-03-13T14:51:44.477Z,15.50
2023-03-13T14:54:31.674Z,15.69
2023-03-13T14:57:16.210Z,15.76
2023-03-13T14:59:45.102Z,15.67
2023-03-13T15:02:21.817Z,15.64
2023-03-13T15:04:59.586Z,15.86
2023-03-13T15:07:29.593Z,16.03
2023-03-13T15:09:57.862Z,16.31
2023-03-13T15:12:28.131Z,16.48
2023-03-13T15:14:57.370Z,16.34
2023-03-13T15:17:27.828Z,16.10
2023-03-13T15:19:57.640Z,15.80
2023-03-13T15:22:29.432Z,15.77
2023-03-13T15:25:06.095Z,16.11
2023-03-13T15:27:36.877Z,16.33
2023-03-13T15:30:06.625Z,16.33
2023-03-13T15:32:37.363Z,16.11
2023-03-13T15:35:22.438Z,16.36
2023-03-13T15:37:50.632Z,16.41
2023-03-13T15:40:19.905Z,16.39
2023-03-13T15:42:49.571Z,16.38
2023-03-13T15:45:17.915Z,16.22
2023-03-13T15:47:48.122Z,15.86
2023-03-13T15:50:19.522Z,15.90
2023-03-13T15:52:48.252Z,15.93
2023-03-13T15:55:16.633Z,15.83
2023-03-13T15:57:47.608Z,15.97
2023-03-13T16:00:21.373Z,15.86
2023-03-13T16:02:49.911Z,16.02
2023-03-13T16:05:18.369Z,16.09
2023-03-13T16:07:46.507Z,15.86
2023-03-13T16:10:18.748Z,15.76
2023-03-13T16:12:46.929Z,15.52
2023-03-13T16:15:15.046Z,15.45
2023-03-13T16:17:44.857Z,15.51
2023-03-13T16:20:17.105Z,15.40
2023-03-13T16:22:45.522Z,15.34
2023-03-13T16:25:13.973Z,15.02
2023-03-13T16:27:42.703Z,14.96
2023-03-13T16:30:19.001Z,15.14
2023-03-13T16:32:48.557Z,14.80
2023-03-13T16:35:17.698Z,14.89
2023-03-13T16:37:46.337Z,14.80
2023-03-13T16:40:17.678Z,14.66
2023-03-13T16:42:46.217Z,14.79
2023-03-13T16:45:15.779Z,14.44
2023-03-13T16:47:45.136Z,14.06
2023-03-13T16:50:23.276Z,14.20
2023-03-13T16:52:52.059Z,14.24
2023-03-13T16:55:20.934Z,14.17
2023-03-13T16:57:49.092Z,13.91
2023-03-13T17:00:21.535Z,13.89
2023-03-13T17:02:50.337Z,13.70
2023-03-13T17:05:21.038Z,13.45
2023-03-13T17:07:51.350Z,13.14
2023-03-13T17:10:22.762Z,12.80
2023-03-13T17:12:51.960Z,12.52
2023-03-13T17:15:21.351Z,12.31
2023-03-13T17:17:52.542Z,11.96
2023-03-13T17:20:26.232Z,11.67
2023-03-13T17:22:56.596Z,11.59
2023-03-13T17:25:25.585Z,11.54
2023-03-13T17:27:54.862Z,11.49
2023-03-13T17:30:26.657Z,11.33
2023-03-13T17:32:55.561Z,11.18
2023-03-13T17:35:26.188Z,11.19
2023-03-13T17:37:54.765Z,11.16
2023-03-13T17:40:25.780Z,11.03
2023-03-13T17:42:54.459Z,10.87
2023-03-13T17:45:23.453Z,10.76
2023-03-13T17:47:53.968Z,10.72
2023-03-13T17:50:25.682Z,10.72
2023-03-13T17:52:56.711Z,10.57
2023-03-13T17:55:25.726Z,10.50
2023-03-13T17:57:55.780Z,10.44
2023-03-13T18:00:29.000Z,10.30
2023-03-13T18:02:59.415Z,10.14
2023-03-13T18:05:28.861Z,10.11
2023-03-13T18:07:59.189Z,9.93
2023-03-13T18:10:30.446Z,9.80
2023-03-13T18:13:00.416Z,9.73
2023-03-13T18:15:30.287Z,9.63
2023-03-13T18:18:00.153Z,9.51
2023-03-13T18:20:33.490Z,9.38
2023-03-13T18:23:04.120Z,9.26
2023-03-13T18:25:33.633Z,9.15
2023-03-13T18:28:05.445Z,9.10
2023-03-13T18:30:35.343Z,8.98
2023-03-13T18:33:04.390Z,8.75
2023-03-13T18:35:34.298Z,8.77
2023-03-13T18:38:05.647Z,8.72
2023-03-13T18:40:36.599Z,8.64
2023-03-13T18:43:06.183Z,8.63
2023-03-13T18:45:36.964Z,8.46
2023-03-13T18:48:07.006Z,8.41
2023-03-13T18:50:36.616Z,8.36
2023-03-13T18:53:07.873Z,8.31
2023-03-13T18:55:45.346Z,8.18
2023-03-13T18:58:15.904Z,8.11
2023-03-13T19:00:46.007Z,8.09
2023-03-13T19:03:21.154Z,8.08
2023-03-13T19:05:51.385Z,8.00
2023-03-13T19:08:23.141Z,7.90
2023-03-13T19:10:53.682Z,7.89
2023-03-13T19:13:22.968Z,7.82
2023-03-13T19:15:59.970Z,7.71
2023-03-13T19:18:29.786Z,7.64
2023-03-13T19:21:00.048Z,7.57
2023-03-13T19:23:33.831Z,7.53
2023-03-13T19:26:04.016Z,7.44
2023-03-13T19:28:33.575Z,7.37
2023-03-13T19:31:04.379Z,7.32
2023-03-13T19:33:35.049Z,7.28
2023-03-13T19:36:10.082Z,7.29
2023-03-13T19:38:41.499Z,7.20
2023-03-13T19:41:15.450Z,7.13
2023-03-13T19:43:48.424Z,7.04
2023-03-13T19:46:25.893Z,6.96
2023-03-13T19:48:58.424Z,6.78
2023-03-13T19:51:30.135Z,6.72
2023-03-13T19:54:02.565Z,6.72
2023-03-13T19:56:34.640Z,6.75
2023-03-13T19:59:06.519Z,6.83
2023-03-13T20:01:35.964Z,6.76
2023-03-13T20:04:05.704Z,6.70
2023-03-13T20:06:41.400Z,6.70
2023-03-13T20:09:16.919Z,6.72
2023-03-13T20:11:46.844Z,6.70
2023-03-13T20:14:16.546Z,6.76
2023-03-13T20:16:49.409Z,6.79
2023-03-13T20:19:19.882Z,6.76
2023-03-13T20:21:50.226Z,6.75
2023-03-13T20:24:21.933Z,6.73
2023-03-13T20:26:52.166Z,6.70
2023-03-13T20:29:22.235Z,6.71
2023-03-13T20:31:53.115Z,6.71
2023-03-13T20:34:22.575Z,6.72
2023-03-13T20:36:54.009Z,6.59
2023-03-13T20:39:26.375Z,6.66
2023-03-13T20:41:56.800Z,6.62
2023-03-13T20:44:29.011Z,6.62
2023-03-13T20:46:59.379Z,6.59
2023-03-13T20:49:29.246Z,6.63
2023-03-13T20:52:00.304Z,6.56
2023-03-13T20:54:31.360Z,6.51
2023-03-13T20:57:00.351Z,6.55
2023-03-13T20:59:35.494Z,6.48
2023-03-13T21:02:05.114Z,6.46
2023-03-13T21:04:34.648Z,6.29
2023-03-13T21:07:05.144Z,6.29
2023-03-13T21:09:36.917Z,6.34
2023-03-13T21:12:07.326Z,6.36
2023-03-13T21:14:36.962Z,6.43
2023-03-13T21:17:05.928Z,6.45
2023-03-13T21:19:35.016Z,6.49
2023-03-13T21:22:04.988Z,6.57
2023-03-13T21:24:34.867Z,6.53
2023-03-13T21:27:03.474Z,6.47
2023-03-13T21:29:31.710Z,6.39
2023-03-13T21:32:00.067Z,6.34
2023-03-13T21:34:28.403Z,6.34
2023-03-13T21:36:57.097Z,6.33
2023-03-13T21:39:25.346Z,6.31
2023-03-13T21:41:54.856Z,6.24
2023-03-13T21:44:23.177Z,6.24
2023-03-13T21:46:51.873Z,6.27
2023-03-13T21:49:20.097Z,6.21
2023-03-13T21:51:48.224Z,6.18
2023-03-13T21:54:16.363Z,6.24
2023-03-13T21:56:44.524Z,6.21
2023-03-13T21:59:14.024Z,6.03
2023-03-13T22:01:42.420Z,6.10
2023-03-13T22:04:10.641Z,6.19
2023-03-13T22:06:38.939Z,6.01
2023-03-13T22:09:08.394Z,6.10
2023-03-13T22:11:36.583Z,6.10
2023-03-13T22:14:04.715Z,6.11
2023-03-13T22:16:34.235Z,6.05
2023-03-13T22:19:02.312Z,6.09
2023-03-13T22:21:30.388Z,6.08
2023-03-13T22:23:58.560Z,6.06
2023-03-13T22:26:26.866Z,6.03
2023-03-13T22:28:54.998Z,6.00
2023-03-13T22:31:23.114Z,6.09
2023-03-13T22:33:52.501Z,6.00
2023-03-13T22:36:20.595Z,5.98
2023-03-13T22:38:48.663Z,5.97
2023-03-13T22:41:17.768Z,5.88
2023-03-13T22:43:45.821Z,5.92
2023-03-13T22:46:14.064Z,5.91
2023-03-13T22:48:42.251Z,5.88
2023-03-13T22:51:13.256Z,5.95
2023-03-13T22:53:43.039Z,5.91
2023-03-13T22:56:12.954Z,6.01
2023-03-13T22:58:42.048Z,6.13
2023-03-13T23:01:12.746Z,6.15
2023-03-13T23:03:41.018Z,6.17
2023-03-13T23:06:15.962Z,6.10
2023-03-13T23:08:44.226Z,6.11
2023-03-13T23:11:12.437Z,6.19
2023-03-13T23:13:40.723Z,6.21
2023-03-13T23:16:10.792Z,6.20
2023-03-13T23:18:40.065Z,6.15
2023-03-13T23:21:10.073Z,6.17
2023-03-13T23:23:40.198Z,6.10
2023-03-13T23:26:10.175Z,6.04
2023-03-13T23:28:39.646Z,6.02
2023-03-13T23:31:12.902Z,5.99
2023-03-13T23:33:41.536Z,5.86
2023-03-13T23:36:12.326Z,5.80
2023-03-13T23:38:42.020Z,5.77
2023-03-13T23:41:11.586Z,5.71
2023-03-13T23:43:40.303Z,5.60
2023-03-13T23:46:16.478Z,5.58
2023-03-13T23:48:45.137Z,5.52
2023-03-13T23:51:14.048Z,5.42
2023-03-13T23:53:44.587Z,5.48
2023-03-13T23:56:13.749Z,5.51
2023-03-13T23:58:42.228Z,5.35
